Texas Enterprise — KSDF — position and weather

sailwx.info

Track history (hours):
 
Tides and Currents Weather Stations Pressure Air Temp Water Temp Dewpoint Dewpoint Depression Visibility Wind Speed Wind Dir Waves Ship Positions

Texas Enterprise

Owner: Seabulk Fleet Management, Tampa, FL. More information available from US FCC via Universal Licensing System and Coast Guard Vessel Documentation Center.

Last reported at 2018-Jan-10 19:14 UTC. Time now 2018-Feb-22 13:21 UTC.
Position N 36°14' E 014°41'.
Warning: this ship's position is 42 days out of date.

Type: Cargo ship. MMSI: 366163000.

Date/timePositionNaut miles runAvg speedWind from/ knotsBaromVisibWave heightAir tempDewpointWater temp
2018-Jan-10 19:14N 36°14' E 014°41'313.8
2018-Jan-10 19:00N 36°15' E 014°37'713.9
2018-Jan-10 18:29N 36°17' E 014°29'714.1
2018-Jan-10 18:00N 36°20' E 014°21'714.2
2018-Jan-10 17:30N 36°22' E 014°13'714.3
2018-Jan-10 17:00N 36°25' E 014°04'714.2
2018-Jan-10 16:30N 36°27' E 013°56'814.2
2018-Jan-10 15:58N 36°29' E 013°47'  
2018-Jan-08 06:57N 36°10' W 002°55'614.4
2018-Jan-08 06:30N 36°09' W 003°02'714.0
2018-Jan-08 06:00N 36°08' W 003°11'713.5
2018-Jan-08 05:30N 36°07' W 003°19'713.7
2018-Jan-08 05:00N 36°07' W 003°28'8415.2
2018-Jan-07 23:30N 36°02' W 005°11'815.9
2018-Jan-07 23:00N 35°60' W 005°20'815.3
2018-Jan-07 22:31N 35°57' W 005°29'1415.2
2018-Jan-07 21:37N 35°54' W 005°45'  
2018-Jan-05 09:40N 31°48' W 019°31'513.8
2018-Jan-05 09:17N 31°49' W 019°37'413.9
2018-Jan-05 09:00N 31°49' W 019°42'23113.6
2018-Jan-04 15:59N 31°49' W 024°14'612.3
2018-Jan-04 15:30N 31°49' W 024°21'612.4
2018-Jan-04 15:00N 31°49' W 024°28'712.6
2018-Jan-04 14:28N 31°49' W 024°36'3612.5
2018-Jan-04 11:34N 31°49' W 025°19'2112.3
2018-Jan-04 09:51N 31°49' W 025°44'912.7
2018-Jan-04 09:08N 31°49' W 025°54'212.8
2018-Jan-04 09:00N 31°49' W 025°56'712.5
2018-Jan-04 08:25N 31°49' W 026°05'  
Track history (hours):
 
Tides and Currents Weather Stations Pressure Air Temp Water Temp Dewpoint Dewpoint Depression Visibility Wind Speed Wind Dir Waves Ship Positions

Texas Enterprise

Owner: Seabulk Fleet Management, Tampa, FL. More information available from US FCC via Universal Licensing System and Coast Guard Vessel Documentation Center.

Last reported at 2018-Jan-10 19:14 UTC. Time now 2018-Feb-22 13:21 UTC.
Position N 36°14' E 014°41'.
Warning: this ship's position is 42 days out of date.

Type: Cargo ship. MMSI: 366163000.

Date/timePositionNaut miles runAvg speedWind from/ knotsBaromVisibWave heightAir tempDewpointWater temp
2018-Jan-10 19:14N 36°14' E 014°41'313.8
2018-Jan-10 19:00N 36°15' E 014°37'713.9
2018-Jan-10 18:29N 36°17' E 014°29'714.1
2018-Jan-10 18:00N 36°20' E 014°21'714.2
2018-Jan-10 17:30N 36°22' E 014°13'714.3
2018-Jan-10 17:00N 36°25' E 014°04'714.2
2018-Jan-10 16:30N 36°27' E 013°56'814.2
2018-Jan-10 15:58N 36°29' E 013°47'  
2018-Jan-08 06:57N 36°10' W 002°55'614.4
2018-Jan-08 06:30N 36°09' W 003°02'714.0
2018-Jan-08 06:00N 36°08' W 003°11'713.5
2018-Jan-08 05:30N 36°07' W 003°19'713.7
2018-Jan-08 05:00N 36°07' W 003°28'8415.2
2018-Jan-07 23:30N 36°02' W 005°11'815.9
2018-Jan-07 23:00N 35°60' W 005°20'815.3
2018-Jan-07 22:31N 35°57' W 005°29'1415.2
2018-Jan-07 21:37N 35°54' W 005°45'  
2018-Jan-05 09:40N 31°48' W 019°31'513.8
2018-Jan-05 09:17N 31°49' W 019°37'413.9
2018-Jan-05 09:00N 31°49' W 019°42'23113.6
2018-Jan-04 15:59N 31°49' W 024°14'612.3
2018-Jan-04 15:30N 31°49' W 024°21'612.4
2018-Jan-04 15:00N 31°49' W 024°28'712.6
2018-Jan-04 14:28N 31°49' W 024°36'3612.5
2018-Jan-04 11:34N 31°49' W 025°19'2112.3
2018-Jan-04 09:51N 31°49' W 025°44'912.7
2018-Jan-04 09:08N 31°49' W 025°54'212.8
2018-Jan-04 09:00N 31°49' W 025°56'712.5
2018-Jan-04 08:25N 31°49' W 026°05'  

Dump ship's entire track history